LDSPLIRQ

Guest
Details From LDSP - SPLIT
To LIRQ - Firenze
Flight Number -
Tags generated
Created
Modified
Stats Distance 222 nm / 412 km
Max Altitude 26,400 ft / 8,047 m
Waypoints 4
Social Downloads 0
Likes 0
Share VATSIM

Download

Looking for another format? Having issues loading an existing format? Contact us
Advertisement - Login to hide

Notes

Basic altitude profile: - Ascent Rate: 2500ft/min - Ascent Speed: 250kts - Cruise Altitude: 35000ft - Cruise Speed: 420kts - Descent Rate: 1500ft/min - Descent Speed: 250kts Options: - Use NATs: yes - Use PACOTS: yes - Use low airways: yes - Use high airways: yes

Route

LDSP LISKO UM730 ANC LIRQ

ID Type Via Altitude Latitude Longitude Leg Dist Tot Dist Heading (true) Name
O LDSP APT - 0 ft / 0 m 43.53903˚ 16.29811˚ - 0 nm - SPLIT
LISKO FIX - 26,400 ft / 8,047 m 43.57139˚ 14.13222˚ 94 nm 94 nm 272° / 270° -
ANC VOR UM730 (AWY-HI) 20,200 ft / 6,157 m 43.58639˚ 13.47111˚ 28 nm 123 nm 272° / 272° ANCONA VOR-DME
O LIRQ APT - 0 ft / 0 m 43.80998˚ 11.20512˚ 99 nm 222 nm 279° / 277° Firenze

Altitude Profile

Advertisement - Login to hide

Weather


0- 5 10 15 20 25 30 35+ Temperature / ° C

Clouds and Precipitation
Forecast for 2017-12-14 18:00 UTC. Updated 2 hours ago

Ground ~20,000 ft ~40,000 ft Winds

LDSP

Details ICAO LDSP (SPU)
Name SPLIT
Region Croatia
Timezone Europe/Zagreb (UTC+1.0)
Stats Elevation 79 ft / 24 m (AMSL)
Location 43.539026° 16.298112°
Runways 1
Magnetic Variation 3.837° E

METAR

LDSP 141700Z 11009KT 080V140 9999 FEW020 BKN035 13/08 Q1011 NOSIG

Decode

TAF

TAF LDSP 141125Z 1412/1512 11008KT 9999 FEW020 BKN030 TX14/1511Z TN09/1418Z TEMPO 1509/1512 12012G25KT RA

Decode

Departure Runways

ID Width Length Bearing (true) Bearing (mag) Surface Threshold Offset Overrun Length
05 148 ft / 45 m 8,357 ft / 2,547 m 52.48° 48.64° Asphalt 0 ft / 0 m 76 ft / 23 m
23 148 ft / 45 m 8,357 ft / 2,547 m 232.50° 228.66° Asphalt 525 ft / 160 m 820 ft / 250 m

LIRQ

Details ICAO LIRQ (FLR)
Name Firenze
Region Italy
Timezone Europe/Rome (UTC+1.0)
Stats Elevation 142 ft / 43 m (AMSL)
Location 43.809984° 11.205118°
Runways 1
Magnetic Variation 2.875° E

METAR

LIRQ 141650Z 21005KT 150V260 9999 SCT025 14/09 Q1009

Decode

TAF

TAF LIRQ 141100Z 1412/1512 22014KT 9999 SCT025 BKN050 TEMPO 1412/1415 RA BECMG 1414/1416 24015G25KT TEMPO 1500/1509 4000 RA

Decode

Destination Runways

ID Width Length Bearing (true) Bearing (mag) Surface Threshold Offset Overrun Length
05 98 ft / 30 m 5,420 ft / 1,652 m 48.52° 45.65° Asphalt 492 ft / 150 m 0 ft / 0 m
23 98 ft / 30 m 5,420 ft / 1,652 m 228.53° 225.66° Asphalt 2,287 ft / 697 m 0 ft / 0 m

Approach Navaids

Runway Type Ident Frequency Range Bearing (true) Bearing (mag) Slope Elevation
05 Localiser IFZ 110.30 MHz 18 nm / 33 km 48.10° 45.23° - 131 ft / 40 m (AMSL)
05 Glidescope IFZ 110.30 MHz 10 nm / 19 km 47.00° 44.13° 3.00° 144 ft / 44 m (AMSL)
05 DME IFZ 110.30 MHz 18 nm / 33 km - - - 144 ft / 44 m (AMSL)